Time;durP1;ratioP1;P1;durP2;ratioP2;P2;SDS_P1;SDS_P2;PMS_P1;PMS_P2;Temp;Humidity;BMP_temperature;BMP_pressure;BME280_temperature;BME280_humidity;BME280_pressure;Samples;Min_cycle;Max_cycle;Signal;HPM_P1;HPM_P2
2022/01/07 00:01:23;;;;;;;47.28;16.80;;;3.00;99.90;;;;;;5013802;28;20045;-73
2022/01/07 00:03:50;;;;;;;49.65;17.02;;;3.00;99.90;;;;;;5014737;28;20072;-72
2022/01/07 00:06:15;;;;;;;41.15;16.58;;;3.00;99.90;;;;;;5014903;28;20030;-73
2022/01/07 00:08:42;;;;;;;48.13;16.58;;;3.00;99.90;;;;;;5014463;28;20491;-72
2022/01/07 00:11:07;;;;;;;51.80;17.85;;;2.90;99.90;;;;;;5018328;28;20084;-71
2022/01/07 00:13:33;;;;;;;46.25;17.77;;;3.00;99.90;;;;;;5016848;28;20639;-71
2022/01/07 00:15:59;;;;;;;39.20;16.25;;;2.90;99.90;;;;;;5013246;28;20095;-70
2022/01/07 00:18:25;;;;;;;43.40;16.35;;;2.90;99.90;;;;;;5019614;28;20068;-72
2022/01/07 00:20:53;;;;;;;45.00;17.48;;;3.00;99.90;;;;;;5013750;28;20399;-70
2022/01/07 00:23:19;;;;;;;41.88;16.33;;;2.90;99.90;;;;;;5013720;28;20026;-70
2022/01/07 00:25:45;;;;;;;41.03;16.90;;;3.00;99.90;;;;;;5016519;28;20026;-73
2022/01/07 00:28:11;;;;;;;42.35;18.23;;;3.00;99.90;;;;;;5015106;28;20779;-70
2022/01/07 00:30:37;;;;;;;38.58;16.73;;;3.00;99.90;;;;;;5016922;28;20029;-71
2022/01/07 00:33:04;;;;;;;48.67;17.23;;;2.90;99.90;;;;;;5017947;28;20033;-72
2022/01/07 00:35:30;;;;;;;41.08;17.08;;;2.80;99.90;;;;;;5017174;28;20061;-70
2022/01/07 00:37:55;;;;;;;36.20;15.73;;;2.90;99.90;;;;;;5015356;28;20065;-70
2022/01/07 00:40:23;;;;;;;43.47;15.45;;;2.90;99.90;;;;;;5021313;28;20479;-71
2022/01/07 00:42:50;;;;;;;40.13;17.33;;;2.90;99.90;;;;;;5008000;28;20129;-71
2022/01/07 00:45:17;;;;;;;39.80;15.00;;;2.80;99.90;;;;;;5017320;28;20026;-70
2022/01/07 00:47:43;;;;;;;33.53;15.45;;;2.90;99.90;;;;;;5013989;28;20487;-71
2022/01/07 00:50:11;;;;;;;41.05;15.32;;;2.90;99.90;;;;;;5017511;28;20108;-71
2022/01/07 00:52:37;;;;;;;42.78;15.93;;;2.90;99.90;;;;;;5019356;28;20080;-73
2022/01/07 00:55:04;;;;;;;40.22;15.02;;;2.80;99.90;;;;;;5021232;28;20113;-70
2022/01/07 00:57:29;;;;;;;42.05;16.48;;;2.90;99.90;;;;;;5022186;28;20033;-71
2022/01/07 00:59:55;;;;;;;38.80;15.15;;;2.90;99.90;;;;;;5020905;28;20049;-71
2022/01/07 01:02:21;;;;;;;39.80;14.85;;;2.90;99.90;;;;;;5019266;28;20479;-70
2022/01/07 01:04:47;;;;;;;33.90;14.65;;;2.90;99.90;;;;;;5019456;28;20036;-71
2022/01/07 01:07:14;;;;;;;37.42;15.38;;;2.90;99.90;;;;;;5020952;28;20395;-70
2022/01/07 01:09:40;;;;;;;37.38;14.40;;;3.00;99.90;;;;;;5016532;28;20053;-70
2022/01/07 01:12:07;;;;;;;32.40;14.60;;;2.90;99.90;;;;;;5020268;28;20057;-70
2022/01/07 01:14:33;;;;;;;35.55;15.27;;;2.90;99.90;;;;;;5022256;28;20167;-70
2022/01/07 01:16:59;;;;;;;36.92;15.15;;;2.90;99.90;;;;;;5015997;28;20060;-70
2022/01/07 01:19:26;;;;;;;33.33;13.23;;;2.80;99.90;;;;;;5014119;28;20037;-70
2022/01/07 01:21:52;;;;;;;44.35;15.75;;;2.80;99.90;;;;;;5013736;28;20038;-73
2022/01/07 01:24:18;;;;;;;33.33;13.98;;;2.80;99.90;;;;;;5015993;28;20096;-72
2022/01/07 01:26:44;;;;;;;36.42;13.57;;;2.90;99.90;;;;;;5014023;28;20022;-72
2022/01/07 01:29:10;;;;;;;42.40;14.70;;;2.90;99.90;;;;;;5017408;28;20083;-72
2022/01/07 01:31:36;;;;;;;37.42;15.00;;;2.90;99.90;;;;;;5014056;28;20017;-70
2022/01/07 01:34:03;;;;;;;42.15;15.60;;;2.90;99.90;;;;;;5018920;28;20091;-70
2022/01/07 01:36:30;;;;;;;39.42;16.48;;;2.90;99.90;;;;;;5009419;28;20029;-71
2022/01/07 01:38:56;;;;;;;37.60;14.50;;;2.90;99.90;;;;;;5012981;28;20026;-70
2022/01/07 01:41:22;;;;;;;31.55;12.90;;;2.80;99.90;;;;;;5014004;28;20018;-73
2022/01/07 01:43:49;;;;;;;40.75;13.30;;;2.80;99.90;;;;;;5013283;28;20654;-72
2022/01/07 01:46:18;;;;;;;39.80;13.18;;;2.90;99.90;;;;;;5014098;28;20076;-72
2022/01/07 01:48:45;;;;;;;32.45;12.95;;;2.80;99.90;;;;;;5016350;28;20029;-71
2022/01/07 01:51:12;;;;;;;35.08;12.93;;;2.90;99.90;;;;;;5015717;28;20041;-71
2022/01/07 01:53:38;;;;;;;30.10;12.35;;;2.90;99.90;;;;;;5017252;28;20026;-71
2022/01/07 01:56:04;;;;;;;35.33;11.35;;;3.00;99.90;;;;;;5014747;28;20030;-71
2022/01/07 01:58:30;;;;;;;27.73;11.07;;;3.00;99.90;;;;;;4999178;28;20550;-71
2022/01/07 02:00:56;;;;;;;34.25;12.07;;;3.00;99.90;;;;;;5018160;28;20442;-71
2022/01/07 02:03:22;;;;;;;32.25;11.60;;;2.90;99.90;;;;;;5016491;28;20033;-70
2022/01/07 02:05:48;;;;;;;30.77;11.77;;;3.00;99.90;;;;;;5018607;28;20101;-71
2022/01/07 02:08:14;;;;;;;26.42;11.55;;;2.90;99.90;;;;;;5013804;28;20029;-70
2022/01/07 02:10:40;;;;;;;30.65;12.27;;;2.90;99.90;;;;;;5014206;28;20089;-70
2022/01/07 02:13:06;;;;;;;35.78;12.10;;;2.90;99.90;;;;;;5012768;28;20097;-71
2022/01/07 02:15:31;;;;;;;29.88;12.07;;;2.90;99.90;;;;;;5012787;28;20030;-71
2022/01/07 02:17:57;;;;;;;28.15;11.18;;;2.90;99.90;;;;;;5012724;28;20021;-72
2022/01/07 02:20:25;;;;;;;27.75;10.30;;;2.90;99.90;;;;;;5009913;28;20034;-70
2022/01/07 02:22:53;;;;;;;28.75;11.00;;;2.90;99.90;;;;;;5011370;28;20036;-73
2022/01/07 02:25:20;;;;;;;27.88;9.55;;;2.90;99.90;;;;;;5012258;28;20060;-70
2022/01/07 02:27:47;;;;;;;30.35;10.50;;;2.90;99.90;;;;;;5010312;28;20053;-71
2022/01/07 02:30:16;;;;;;;25.85;10.00;;;3.00;99.90;;;;;;5013280;28;20036;-71
2022/01/07 02:32:42;;;;;;;32.53;9.65;;;3.00;99.90;;;;;;5016940;28;20026;-72
2022/01/07 02:35:08;;;;;;;23.92;9.25;;;3.00;99.90;;;;;;5013551;28;20505;-73
2022/01/07 02:37:35;;;;;;;23.45;9.55;;;3.00;99.90;;;;;;5013158;28;20083;-70
2022/01/07 02:40:02;;;;;;;26.88;8.82;;;3.00;99.90;;;;;;5013158;28;20022;-70
2022/01/07 02:42:28;;;;;;;28.35;9.35;;;3.00;99.90;;;;;;5012128;28;20566;-71
2022/01/07 02:44:54;;;;;;;28.85;9.43;;;3.00;99.90;;;;;;5011267;28;20030;-71
2022/01/07 02:47:21;;;;;;;25.10;8.73;;;3.00;99.90;;;;;;5018634;28;20033;-71
2022/01/07 02:49:50;;;;;;;25.65;9.32;;;3.00;99.90;;;;;;5011206;28;20037;-71
2022/01/07 02:52:15;;;;;;;16.67;8.40;;;3.00;99.90;;;;;;5010129;28;20030;-70
2022/01/07 02:54:41;;;;;;;24.58;9.50;;;3.10;99.90;;;;;;5016367;28;20022;-70
2022/01/07 02:57:07;;;;;;;22.40;8.68;;;3.10;99.90;;;;;;5018162;28;20041;-71
2022/01/07 02:59:33;;;;;;;21.85;8.25;;;3.10;99.90;;;;;;5011521;28;20033;-71
2022/01/07 03:01:59;;;;;;;24.48;7.65;;;3.10;99.90;;;;;;5017183;28;20069;-71
2022/01/07 03:04:26;;;;;;;23.13;7.50;;;3.00;99.90;;;;;;5010109;28;20030;-71
2022/01/07 03:06:52;;;;;;;24.25;8.40;;;3.00;99.90;;;;;;5015877;28;20037;-71
2022/01/07 03:09:18;;;;;;;19.90;7.47;;;3.10;99.90;;;;;;5017097;28;20018;-71
2022/01/07 03:11:44;;;;;;;22.65;7.63;;;3.10;99.90;;;;;;5012077;28;20487;-70
2022/01/07 03:14:10;;;;;;;21.67;7.15;;;3.00;99.90;;;;;;5016621;28;20026;-70
2022/01/07 03:16:36;;;;;;;17.63;7.32;;;3.00;99.90;;;;;;5012903;28;20026;-71
2022/01/07 03:19:01;;;;;;;20.10;7.18;;;3.00;99.90;;;;;;5004853;28;20030;-70
2022/01/07 03:21:27;;;;;;;21.38;7.03;;;3.10;99.90;;;;;;5014030;28;20029;-70
2022/01/07 03:23:53;;;;;;;22.55;7.22;;;3.10;99.90;;;;;;5014725;28;20050;-71
2022/01/07 03:26:19;;;;;;;21.38;7.53;;;3.00;99.90;;;;;;5013664;28;20445;-70
2022/01/07 03:28:46;;;;;;;21.58;7.70;;;3.20;99.90;;;;;;5016985;28;20555;-70
2022/01/07 03:31:11;;;;;;;24.33;6.82;;;3.10;99.90;;;;;;5016864;28;20056;-73
2022/01/07 03:33:37;;;;;;;22.40;6.95;;;3.10;99.90;;;;;;5018791;28;20064;-70
2022/01/07 03:36:03;;;;;;;16.05;6.70;;;3.10;99.90;;;;;;5009057;28;20588;-70
2022/01/07 03:38:29;;;;;;;15.52;6.50;;;3.10;99.90;;;;;;5016884;28;20087;-70
2022/01/07 03:40:55;;;;;;;17.92;6.57;;;3.10;99.90;;;;;;5016452;28;20108;-72
2022/01/07 03:43:21;;;;;;;14.65;6.82;;;3.10;99.90;;;;;;5016697;28;20030;-70
2022/01/07 03:45:46;;;;;;;21.48;6.35;;;3.10;99.90;;;;;;5011266;28;20372;-70
2022/01/07 03:48:12;;;;;;;24.35;6.80;;;3.10;99.90;;;;;;5015413;28;20030;-70
2022/01/07 03:50:38;;;;;;;16.27;6.03;;;3.20;99.90;;;;;;5009509;28;20072;-72
2022/01/07 03:53:05;;;;;;;16.83;6.30;;;3.20;99.90;;;;;;5029899;23;20065;-71
2022/01/07 03:55:31;;;;;;;16.00;5.72;;;3.20;99.90;;;;;;5014298;28;20036;-70
2022/01/07 03:57:57;;;;;;;11.75;5.38;;;3.10;99.90;;;;;;5012757;28;20474;-70
2022/01/07 04:00:37;;;;;;;16.92;5.35;;;3.10;99.90;;;;;;5012079;28;20570;-70
2022/01/07 04:03:16;;;;;;;13.70;5.45;;;3.20;99.90;;;;;;5020827;28;20041;-70
2022/01/07 04:05:42;;;;;;;15.68;5.65;;;3.20;99.90;;;;;;5002948;28;20046;-70
2022/01/07 04:08:08;;;;;;;12.95;5.03;;;3.20;99.90;;;;;;5001880;28;20028;-70
2022/01/07 04:10:34;;;;;;;14.90;5.60;;;3.20;99.90;;;;;;4999318;28;20464;-70
2022/01/07 04:13:00;;;;;;;19.20;5.75;;;3.10;99.90;;;;;;5002401;28;20563;-70
2022/01/07 04:15:26;;;;;;;13.55;6.10;;;3.10;99.90;;;;;;5000674;28;20026;-70
2022/01/07 04:17:54;;;;;;;16.50;6.18;;;3.10;99.90;;;;;;4995106;28;20030;-70
2022/01/07 04:20:26;;;;;;;18.08;5.55;;;3.20;99.90;;;;;;4998466;28;20031;-70
2022/01/07 04:22:52;;;;;;;17.63;5.57;;;3.20;99.90;;;;;;4994997;28;20034;-70
2022/01/07 04:25:20;;;;;;;14.60;5.47;;;3.20;99.90;;;;;;5000807;28;20033;-70
2022/01/07 04:27:48;;;;;;;14.25;5.45;;;3.20;99.90;;;;;;5000136;28;20030;-70
2022/01/07 04:30:15;;;;;;;14.82;5.43;;;3.20;99.90;;;;;;5001230;28;20026;-71
2022/01/07 04:32:42;;;;;;;21.70;6.97;;;3.20;99.90;;;;;;4998009;28;20026;-70
2022/01/07 04:35:11;;;;;;;14.95;6.47;;;3.10;99.90;;;;;;5003921;28;20088;-70
2022/01/07 04:37:37;;;;;;;20.92;6.50;;;3.00;99.90;;;;;;5002325;28;20018;-70
2022/01/07 04:40:05;;;;;;;15.25;6.60;;;3.00;99.90;;;;;;5000023;28;20036;-70
2022/01/07 04:42:31;;;;;;;19.45;7.57;;;3.00;99.90;;;;;;5000545;28;20029;-71
2022/01/07 04:44:57;;;;;;;26.73;7.40;;;2.90;99.90;;;;;;5006687;28;20034;-70
2022/01/07 04:47:22;;;;;;;19.00;7.18;;;2.80;99.90;;;;;;5004225;28;20058;-70
2022/01/07 04:49:48;;;;;;;18.38;6.70;;;2.70;99.90;;;;;;5003401;28;20467;-70
2022/01/07 04:52:16;;;;;;;20.75;6.90;;;2.70;99.90;;;;;;5005566;28;20033;-70
2022/01/07 04:54:41;;;;;;;18.98;7.07;;;2.70;99.90;;;;;;5007838;28;20041;-70
2022/01/07 04:57:07;;;;;;;17.30;6.63;;;2.70;99.90;;;;;;5006202;28;20034;-70
2022/01/07 04:59:33;;;;;;;18.83;7.32;;;2.70;99.90;;;;;;4995959;28;20034;-71
2022/01/07 05:01:58;;;;;;;21.52;7.40;;;2.70;99.90;;;;;;5000437;28;20491;-70
2022/01/07 05:04:24;;;;;;;18.85;6.68;;;2.60;99.90;;;;;;5004323;28;20029;-70
2022/01/07 05:06:50;;;;;;;19.90;8.13;;;2.60;99.90;;;;;;5004969;28;20388;-70
2022/01/07 05:09:17;;;;;;;19.85;7.85;;;2.50;99.90;;;;;;5004920;28;20014;-70
2022/01/07 05:11:48;;;;;;;21.73;7.45;;;2.60;99.90;;;;;;5001617;28;20463;-70
2022/01/07 05:14:15;;;;;;;20.50;7.50;;;2.50;99.90;;;;;;5006771;28;20055;-70
2022/01/07 05:16:41;;;;;;;23.85;8.70;;;2.50;99.90;;;;;;5001292;28;20073;-70
2022/01/07 05:19:07;;;;;;;19.77;7.03;;;2.50;99.90;;;;;;5004648;28;20035;-70
2022/01/07 05:21:33;;;;;;;20.05;8.35;;;2.50;99.90;;;;;;5004128;28;20042;-70
2022/01/07 05:23:59;;;;;;;15.85;8.25;;;2.50;99.90;;;;;;5003498;28;20515;-70
2022/01/07 05:26:25;;;;;;;20.77;9.55;;;2.50;99.90;;;;;;5003401;28;20069;-70
2022/01/07 05:28:51;;;;;;;21.08;8.50;;;2.40;99.90;;;;;;5003499;28;20029;-70
2022/01/07 05:31:24;;;;;;;25.95;9.85;;;2.50;99.90;;;;;;5000830;28;20026;-70
2022/01/07 05:33:54;;;;;;;19.83;8.55;;;2.50;99.90;;;;;;4998405;28;20022;-70
2022/01/07 05:36:21;;;;;;;21.23;10.07;;;2.50;99.90;;;;;;4998043;28;20026;-70
2022/01/07 05:38:47;;;;;;;25.08;9.25;;;2.50;99.90;;;;;;4998911;28;20027;-71
2022/01/07 05:41:14;;;;;;;25.73;10.07;;;2.50;99.90;;;;;;4994642;28;20113;-70
2022/01/07 05:43:39;;;;;;;20.77;9.63;;;2.50;99.90;;;;;;4997177;28;20049;-70
2022/01/07 05:46:08;;;;;;;19.65;9.38;;;2.40;99.90;;;;;;4999386;28;20034;-71
2022/01/07 05:48:33;;;;;;;22.67;9.23;;;2.40;99.90;;;;;;4992481;28;20037;-71
2022/01/07 05:50:59;;;;;;;19.00;8.60;;;2.40;99.90;;;;;;4994964;28;20025;-72
2022/01/07 05:53:25;;;;;;;26.80;9.55;;;2.50;99.90;;;;;;4992893;28;20160;-71
2022/01/07 05:55:50;;;;;;;27.48;9.02;;;2.40;99.90;;;;;;4995615;28;20120;-71
2022/01/07 05:58:16;;;;;;;20.38;8.73;;;2.40;99.90;;;;;;4994766;28;20034;-71
2022/01/07 06:00:42;;;;;;;20.80;8.93;;;2.40;99.90;;;;;;4995554;28;20045;-71
2022/01/07 06:03:07;;;;;;;17.80;8.98;;;2.40;99.90;;;;;;4990549;28;20035;-71
2022/01/07 06:05:33;;;;;;;19.00;8.55;;;2.40;99.90;;;;;;4995586;28;20049;-71
2022/01/07 06:07:59;;;;;;;19.83;9.38;;;2.40;99.90;;;;;;4998163;28;20088;-72
2022/01/07 06:10:24;;;;;;;15.38;8.45;;;2.50;99.90;;;;;;4993150;28;20522;-71
2022/01/07 06:12:50;;;;;;;18.45;7.78;;;2.40;99.90;;;;;;4977208;28;20026;-71
2022/01/07 06:15:16;;;;;;;19.67;8.68;;;2.40;99.90;;;;;;4992070;28;20184;-70
2022/01/07 06:17:41;;;;;;;17.48;7.93;;;2.40;99.90;;;;;;4993179;28;20066;-71
2022/01/07 06:20:08;;;;;;;16.25;7.57;;;2.40;99.90;;;;;;4993541;28;20023;-72
2022/01/07 06:22:36;;;;;;;19.52;9.15;;;2.40;99.90;;;;;;4995824;28;20042;-72
2022/01/07 06:25:04;;;;;;;16.80;7.90;;;2.40;99.90;;;;;;5002604;28;20113;-70
2022/01/07 06:27:30;;;;;;;16.50;8.25;;;2.40;99.90;;;;;;4990984;28;21359;-71
2022/01/07 06:29:57;;;;;;;19.92;8.70;;;2.50;99.90;;;;;;5000466;28;20022;-71
2022/01/07 06:32:23;;;;;;;18.13;8.40;;;2.40;99.90;;;;;;5007959;28;20034;-72
2022/01/07 06:34:49;;;;;;;18.88;8.05;;;2.40;99.90;;;;;;4994576;28;20034;-71
2022/01/07 06:37:15;;;;;;;17.38;8.60;;;2.40;99.90;;;;;;5000235;28;20048;-72
2022/01/07 06:39:41;;;;;;;16.23;8.23;;;2.40;99.90;;;;;;4995848;28;20030;-72
2022/01/07 06:42:07;;;;;;;15.95;8.05;;;2.30;99.90;;;;;;4997340;28;20109;-72
2022/01/07 06:44:33;;;;;;;17.70;7.85;;;2.40;99.90;;;;;;4988883;28;20089;-71
2022/01/07 06:46:59;;;;;;;14.10;8.02;;;2.40;99.90;;;;;;5002676;28;20034;-73
2022/01/07 06:49:24;;;;;;;17.73;8.85;;;2.40;99.90;;;;;;4999195;28;20025;-71
2022/01/07 06:51:51;;;;;;;16.80;8.27;;;2.40;99.90;;;;;;5000403;28;20037;-72
2022/01/07 06:54:17;;;;;;;19.75;8.63;;;2.50;99.90;;;;;;5002005;28;20021;-71
2022/01/07 06:56:44;;;;;;;19.65;8.00;;;2.40;99.90;;;;;;4999256;28;20027;-70
2022/01/07 06:59:13;;;;;;;17.60;8.20;;;2.40;99.90;;;;;;4993282;28;20035;-71
2022/01/07 07:01:45;;;;;;;15.55;8.15;;;2.40;99.90;;;;;;5000165;28;20022;-71
2022/01/07 07:04:10;;;;;;;13.55;8.00;;;2.30;99.90;;;;;;5006899;28;20060;-72
2022/01/07 07:06:36;;;;;;;17.33;8.35;;;2.30;99.90;;;;;;5000683;28;20030;-73
2022/01/07 07:09:03;;;;;;;18.40;8.73;;;2.30;99.90;;;;;;5004143;28;20030;-72
2022/01/07 07:11:29;;;;;;;16.27;8.25;;;2.30;99.90;;;;;;5006317;28;20058;-72
2022/01/07 07:13:55;;;;;;;17.95;8.52;;;2.40;99.90;;;;;;5001038;28;20494;-70
2022/01/07 07:16:20;;;;;;;19.02;8.48;;;2.40;99.90;;;;;;5009760;28;20395;-71
2022/01/07 07:18:47;;;;;;;15.73;7.88;;;2.40;99.90;;;;;;5000760;28;20396;-75
2022/01/07 07:21:12;;;;;;;16.45;8.77;;;2.40;99.90;;;;;;4998671;28;20030;-71
2022/01/07 07:23:38;;;;;;;12.95;7.82;;;2.40;99.90;;;;;;5003541;28;20041;-70
2022/01/07 07:26:04;;;;;;;15.65;8.35;;;2.30;99.90;;;;;;5000297;28;20039;-70
2022/01/07 07:28:30;;;;;;;18.70;9.32;;;2.20;99.90;;;;;;4996093;28;20526;-70
2022/01/07 07:30:57;;;;;;;20.60;8.80;;;2.20;99.90;;;;;;5003538;28;20026;-70
2022/01/07 07:39:03;;;;;;;17.07;9.03;;;2.30;99.90;;;;;;5012342;28;21513;-70
2022/01/07 07:41:29;;;;;;;18.80;9.57;;;2.30;99.90;;;;;;5016577;28;20093;-70
2022/01/07 07:43:57;;;;;;;17.35;9.15;;;2.30;99.90;;;;;;5028202;28;20080;-70
2022/01/07 07:46:23;;;;;;;22.10;9.55;;;2.30;99.90;;;;;;5017487;28;20045;-70
2022/01/07 07:48:51;;;;;;;16.63;9.55;;;2.40;99.90;;;;;;5016048;28;20042;-71
2022/01/07 07:51:17;;;;;;;17.77;9.68;;;2.40;99.90;;;;;;5017846;28;20037;-70
2022/01/07 07:53:43;;;;;;;19.90;10.07;;;2.40;99.90;;;;;;5013935;28;20030;-70
2022/01/07 07:56:12;;;;;;;20.55;10.52;;;2.50;99.90;;;;;;5012245;28;20045;-70
2022/01/07 07:58:38;;;;;;;17.52;10.75;;;2.40;99.90;;;;;;4999313;28;20037;-71
2022/01/07 08:01:03;;;;;;;22.10;10.10;;;2.50;99.90;;;;;;5009143;28;20038;-71
2022/01/07 08:03:29;;;;;;;21.25;10.38;;;2.50;99.90;;;;;;5014815;28;20098;-71
2022/01/07 08:05:55;;;;;;;17.35;9.23;;;2.50;99.90;;;;;;5014778;28;20170;-71
2022/01/07 08:08:21;;;;;;;15.80;9.82;;;2.50;99.90;;;;;;5013876;28;20101;-71
2022/01/07 08:10:50;;;;;;;19.15;10.00;;;2.60;99.90;;;;;;5003897;28;20048;-70
2022/01/07 08:13:30;;;;;;;17.40;9.13;;;2.60;99.90;;;;;;5007058;28;20059;-71
2022/01/07 08:16:04;;;;;;;20.63;10.43;;;2.60;99.90;;;;;;4998520;28;20046;-71
2022/01/07 08:18:34;;;;;;;18.40;10.30;;;2.60;99.90;;;;;;5008560;28;20026;-71
2022/01/07 08:21:05;;;;;;;19.30;10.02;;;2.60;99.90;;;;;;5001702;28;20084;-71
2022/01/07 08:23:32;;;;;;;17.48;9.85;;;2.60;99.90;;;;;;5000160;28;20537;-71
2022/01/07 08:26:00;;;;;;;17.90;10.25;;;2.60;99.90;;;;;;5004541;28;20080;-70
2022/01/07 08:28:30;;;;;;;21.60;10.73;;;2.60;99.90;;;;;;5006609;28;20022;-71
2022/01/07 08:31:01;;;;;;;17.38;9.40;;;2.60;99.90;;;;;;5007955;28;20034;-71
2022/01/07 08:36:15;;;;;;;15.80;9.60;;;2.60;99.90;;;;;;5003080;28;20030;-71
2022/01/07 08:38:41;;;;;;;22.20;9.57;;;2.60;99.90;;;;;;5003289;28;20034;-71
2022/01/07 08:41:07;;;;;;;15.43;9.75;;;2.60;99.90;;;;;;5000974;28;20044;-71
2022/01/07 08:43:33;;;;;;;15.55;9.02;;;2.50;99.90;;;;;;5002331;28;20164;-71
2022/01/07 08:45:59;;;;;;;15.90;8.73;;;2.50;99.90;;;;;;5004649;28;20062;-72
2022/01/07 08:48:28;;;;;;;21.10;9.25;;;2.50;99.90;;;;;;4998985;28;20057;-72
2022/01/07 08:50:57;;;;;;;16.88;9.00;;;2.50;99.90;;;;;;4994229;28;20042;-72
2022/01/07 08:53:23;;;;;;;19.35;9.02;;;2.40;99.90;;;;;;4999684;28;20034;-72
2022/01/07 08:55:49;;;;;;;14.25;8.52;;;2.30;99.90;;;;;;4998434;28;20400;-72
2022/01/07 08:58:15;;;;;;;14.63;8.70;;;2.30;99.90;;;;;;5000573;28;20042;-72
2022/01/07 09:00:41;;;;;;;16.33;9.13;;;2.30;99.90;;;;;;5000187;28;20050;-72
2022/01/07 09:03:07;;;;;;;16.13;9.45;;;2.30;99.90;;;;;;5001141;28;20025;-72
2022/01/07 09:05:33;;;;;;;15.52;10.07;;;2.30;99.90;;;;;;5005747;28;20019;-72
2022/01/07 09:08:00;;;;;;;15.95;9.60;;;2.30;99.90;;;;;;4999109;28;20049;-72
2022/01/07 09:10:26;;;;;;;18.77;9.50;;;2.30;99.90;;;;;;5004399;28;20108;-72
2022/01/07 09:12:53;;;;;;;15.70;9.60;;;2.30;99.90;;;;;;5004060;28;20109;-72
2022/01/07 09:15:19;;;;;;;15.30;9.57;;;2.30;99.90;;;;;;5002951;28;20498;-72
2022/01/07 09:17:45;;;;;;;18.63;10.10;;;2.30;99.90;;;;;;5004550;28;20025;-72
2022/01/07 09:20:11;;;;;;;15.73;9.93;;;2.30;99.90;;;;;;5001740;28;20065;-72
2022/01/07 09:22:38;;;;;;;16.48;10.52;;;2.40;99.90;;;;;;5000584;28;20660;-72
2022/01/07 09:25:06;;;;;;;17.85;10.90;;;2.40;99.90;;;;;;4995373;28;20030;-72
2022/01/07 09:27:32;;;;;;;18.77;11.13;;;2.40;99.90;;;;;;5000993;28;20022;-73
2022/01/07 09:29:59;;;;;;;18.27;10.00;;;2.30;99.90;;;;;;5004707;28;20022;-72
2022/01/07 09:32:25;;;;;;;18.17;10.40;;;2.30;99.90;;;;;;5002340;28;20036;-72
2022/01/07 09:34:50;;;;;;;17.67;11.55;;;2.40;99.90;;;;;;4998853;28;20030;-72
2022/01/07 09:37:17;;;;;;;16.10;10.48;;;2.40;99.90;;;;;;5003702;28;20712;-72
2022/01/07 09:39:43;;;;;;;16.25;10.38;;;2.30;99.90;;;;;;4997119;28;20034;-72
2022/01/07 09:42:09;;;;;;;17.02;10.85;;;2.30;99.90;;;;;;5002987;28;20033;-72
2022/01/07 09:44:40;;;;;;;16.25;10.75;;;2.30;99.90;;;;;;4999980;28;20037;-72
2022/01/07 09:47:06;;;;;;;17.05;10.85;;;2.30;99.90;;;;;;5000878;28;20030;-72
2022/01/07 09:49:35;;;;;;;21.02;11.00;;;2.40;99.90;;;;;;5002246;28;20113;-72
2022/01/07 09:52:01;;;;;;;16.40;11.25;;;2.40;99.90;;;;;;4998294;28;20120;-71
2022/01/07 09:54:27;;;;;;;18.23;10.60;;;2.40;99.90;;;;;;4994218;28;20022;-71
2022/01/07 09:56:53;;;;;;;19.63;10.57;;;2.50;99.90;;;;;;5003368;28;20037;-72
2022/01/07 09:59:19;;;;;;;15.63;10.23;;;2.40;99.90;;;;;;4999436;28;20022;-70
2022/01/07 10:02:01;;;;;;;19.55;11.50;;;2.50;99.90;;;;;;5000554;28;20073;-71
2022/01/07 10:04:40;;;;;;;16.67;10.50;;;2.40;99.90;;;;;;5003805;28;20033;-71
2022/01/07 10:07:22;;;;;;;20.10;12.02;;;2.50;99.90;;;;;;4997878;28;20093;-71
2022/01/07 10:09:58;;;;;;;16.55;10.90;;;2.50;99.90;;;;;;4991724;28;20031;-71
2022/01/07 10:12:25;;;;;;;19.00;11.88;;;2.50;99.90;;;;;;5000632;28;20044;-72
2022/01/07 10:15:12;;;;;;;17.33;11.88;;;2.50;99.90;;;;;;4997427;28;20025;-72
2022/01/07 10:17:38;;;;;;;21.13;12.10;;;2.50;99.90;;;;;;4998351;28;20076;-71
2022/01/07 10:20:05;;;;;;;19.00;12.20;;;2.50;99.90;;;;;;4997765;28;20113;-72
2022/01/07 10:22:55;;;;;;;17.75;11.57;;;2.50;99.90;;;;;;4999075;28;20029;-71
2022/01/07 10:25:43;;;;;;;20.65;12.73;;;2.50;99.90;;;;;;4997095;28;20057;-71
2022/01/07 10:28:18;;;;;;;19.83;11.80;;;2.50;99.90;;;;;;4991797;28;20061;-71
2022/01/07 10:30:52;;;;;;;19.63;11.63;;;2.50;99.90;;;;;;4993524;28;20563;-74
2022/01/07 10:33:25;;;;;;;19.67;12.25;;;2.50;99.90;;;;;;4992986;28;20420;-71
2022/01/07 10:35:56;;;;;;;17.98;12.43;;;2.50;99.90;;;;;;5002016;28;20083;-71
2022/01/07 10:38:24;;;;;;;20.83;12.90;;;2.50;99.90;;;;;;4995707;28;20042;-73
2022/01/07 10:40:52;;;;;;;21.10;12.70;;;2.50;99.90;;;;;;4996941;28;20037;-71
2022/01/07 10:43:24;;;;;;;18.73;11.98;;;2.60;99.90;;;;;;4996544;28;20030;-71
2022/01/07 10:45:56;;;;;;;21.95;13.13;;;2.60;99.90;;;;;;4995008;28;20033;-71
2022/01/07 10:48:35;;;;;;;21.52;13.48;;;2.60;99.90;;;;;;5001013;28;20026;-70
2022/01/07 10:51:09;;;;;;;21.35;13.02;;;2.60;99.90;;;;;;4996480;28;20034;-71
2022/01/07 10:53:35;;;;;;;21.88;13.82;;;2.60;99.90;;;;;;4993707;28;20100;-72
2022/01/07 10:56:09;;;;;;;18.45;11.80;;;2.60;99.90;;;;;;4992638;28;20169;-71
2022/01/07 10:58:49;;;;;;;22.02;13.90;;;2.70;99.90;;;;;;4993725;28;20403;-72
2022/01/07 11:01:20;;;;;;;19.73;13.02;;;2.60;99.90;;;;;;4997410;28;20041;-71
2022/01/07 11:03:52;;;;;;;20.80;12.65;;;2.70;99.90;;;;;;4997439;28;20113;-71
2022/01/07 11:06:18;;;;;;;20.38;12.63;;;2.70;99.90;;;;;;4995389;28;20125;-70
2022/01/07 11:08:51;;;;;;;20.83;13.32;;;2.70;99.90;;;;;;4994321;28;20026;-70
2022/01/07 11:11:19;;;;;;;24.80;14.40;;;2.70;99.90;;;;;;4996445;28;20073;-70
2022/01/07 11:13:46;;;;;;;24.83;14.13;;;2.70;99.90;;;;;;5001610;28;20029;-70
2022/01/07 11:16:12;;;;;;;20.17;13.30;;;2.70;99.90;;;;;;4995387;28;20038;-70
2022/01/07 11:18:40;;;;;;;24.30;14.82;;;2.70;99.90;;;;;;5001361;28;20057;-70
2022/01/07 11:21:08;;;;;;;24.65;15.60;;;2.70;99.90;;;;;;4993368;28;20065;-71
2022/01/07 11:23:38;;;;;;;24.80;14.02;;;2.80;99.90;;;;;;4996319;28;20022;-71
2022/01/07 11:26:05;;;;;;;26.10;15.18;;;2.80;99.90;;;;;;4997574;28;20531;-70
2022/01/07 11:28:32;;;;;;;26.13;15.20;;;2.80;99.90;;;;;;5004263;28;20022;-71
2022/01/07 11:31:14;;;;;;;27.20;15.05;;;2.80;99.90;;;;;;4993516;28;20677;-71
2022/01/07 11:33:41;;;;;;;26.08;14.80;;;2.80;99.90;;;;;;4993788;28;20041;-72
2022/01/07 11:36:11;;;;;;;26.95;14.80;;;2.90;99.90;;;;;;5001167;28;20026;-71
2022/01/07 11:38:45;;;;;;;26.63;15.52;;;2.90;99.90;;;;;;4985498;28;20084;-71
2022/01/07 11:41:35;;;;;;;22.85;15.00;;;2.90;99.90;;;;;;4989261;28;20369;-71
2022/01/07 11:44:30;;;;;;;26.27;16.58;;;3.00;99.90;;;;;;5005358;28;20034;-70
2022/01/07 11:47:19;;;;;;;23.17;14.80;;;3.00;99.90;;;;;;4993028;28;20034;-70
2022/01/07 11:49:59;;;;;;;33.47;16.30;;;3.00;99.90;;;;;;4994612;28;20034;-70
2022/01/07 11:52:37;;;;;;;28.85;16.55;;;3.00;99.90;;;;;;4988508;28;20109;-70
2022/01/07 11:55:33;;;;;;;29.40;16.35;;;3.10;99.90;;;;;;5001632;28;20018;-70
2022/01/07 11:58:03;;;;;;;29.17;16.98;;;3.10;99.90;;;;;;5001713;28;20152;-72
2022/01/07 12:00:50;;;;;;;29.10;16.70;;;3.10;99.90;;;;;;4996483;28;20065;-70
2022/01/07 12:03:32;;;;;;;30.30;17.52;;;3.20;99.90;;;;;;4998124;28;20033;-71
2022/01/07 12:05:59;;;;;;;28.88;16.98;;;3.20;99.90;;;;;;5003762;28;20053;-71
2022/01/07 12:09:00;;;;;;;32.25;17.40;;;3.20;99.90;;;;;;5002967;28;20021;-71
2022/01/07 12:11:29;;;;;;;30.40;17.65;;;3.30;99.90;;;;;;5000968;28;20530;-70
2022/01/07 12:13:56;;;;;;;33.00;18.63;;;3.30;99.90;;;;;;5002275;28;20034;-71
2022/01/07 12:16:24;;;;;;;36.53;19.23;;;3.30;99.90;;;;;;5006011;28;20135;-71
2022/01/07 12:18:51;;;;;;;34.97;18.13;;;3.30;99.90;;;;;;5007750;28;20032;-71
2022/01/07 12:21:17;;;;;;;30.52;18.17;;;3.30;99.90;;;;;;5010107;28;20026;-71
2022/01/07 12:23:43;;;;;;;31.35;19.45;;;3.30;99.90;;;;;;5009200;28;20395;-72
2022/01/07 12:26:10;;;;;;;30.35;17.58;;;3.30;99.90;;;;;;5007529;28;20032;-71
2022/01/07 12:28:48;;;;;;;32.35;17.67;;;3.40;99.90;;;;;;5004339;28;20099;-72
2022/01/07 12:31:14;;;;;;;27.85;17.30;;;3.40;99.90;;;;;;5006770;28;20042;-71
2022/01/07 12:33:50;;;;;;;30.90;17.67;;;3.40;99.90;;;;;;5007425;28;20045;-71
2022/01/07 12:36:31;;;;;;;30.05;17.30;;;3.40;99.90;;;;;;5005955;28;20033;-71
2022/01/07 12:38:58;;;;;;;;;;;3.50;99.90;;;;;;5001392;28;20419;-71
2022/01/07 12:41:24;;;;;;;33.03;16.92;;;3.50;99.90;;;;;;5005870;28;19917;-71
2022/01/07 12:44:13;;;;;;;30.85;18.95;;;3.50;99.90;;;;;;5002046;28;20038;-71
2022/01/07 12:46:40;;;;;;;35.00;18.50;;;3.50;99.90;;;;;;5005036;28;20491;-71
2022/01/07 12:49:08;;;;;;;35.05;19.48;;;3.50;99.90;;;;;;5004368;28;20032;-71
2022/01/07 12:51:35;;;;;;;34.60;18.77;;;3.60;99.90;;;;;;5006369;28;20029;-71
2022/01/07 12:54:07;;;;;;;31.73;17.42;;;3.60;99.90;;;;;;5005458;28;20077;-71
2022/01/07 12:56:36;;;;;;;30.75;17.38;;;3.70;99.90;;;;;;5007071;28;20554;-72